createdAt,value
2023-02-15T00:00:08.386Z,0.00
2023-02-15T00:01:08.549Z,0.00
2023-02-15T00:02:08.795Z,0.00
2023-02-15T00:03:08.911Z,0.00
2023-02-15T00:04:09.049Z,0.00
2023-02-15T00:05:09.245Z,0.00
2023-02-15T00:06:09.411Z,0.00
2023-02-15T00:07:09.583Z,0.00
2023-02-15T00:08:09.770Z,0.00
2023-02-15T00:09:09.942Z,0.00
2023-02-15T00:10:17.117Z,0.00
2023-02-15T00:11:10.289Z,0.00
2023-02-15T00:12:10.466Z,0.00
2023-02-15T00:13:10.630Z,0.00
2023-02-15T00:14:10.804Z,0.00
2023-02-15T00:15:10.965Z,0.00
2023-02-15T00:16:11.207Z,0.00
2023-02-15T00:17:11.302Z,0.00
2023-02-15T00:18:11.468Z,0.00
2023-02-15T00:19:11.626Z,0.00
2023-02-15T00:20:11.809Z,0.00
2023-02-15T00:21:11.978Z,0.00
2023-02-15T00:22:12.169Z,0.00
2023-02-15T00:23:12.340Z,0.00
2023-02-15T00:24:12.534Z,0.00
2023-02-15T00:25:12.679Z,0.00
2023-02-15T00:26:12.889Z,0.00
2023-02-15T00:27:13.048Z,0.00
2023-02-15T00:28:13.229Z,0.00
2023-02-15T00:29:13.369Z,0.00
2023-02-15T00:30:13.571Z,0.00
2023-02-15T00:31:13.780Z,0.00
2023-02-15T00:32:13.890Z,0.00
2023-02-15T00:33:14.062Z,0.00
2023-02-15T00:34:14.218Z,0.00
2023-02-15T00:35:14.384Z,0.00
2023-02-15T00:36:14.560Z,0.00
2023-02-15T00:37:14.740Z,0.00
2023-02-15T00:38:14.864Z,0.00
2023-02-15T00:39:15.033Z,0.00
2023-02-15T00:40:15.217Z,0.00
2023-02-15T00:41:15.355Z,0.00
2023-02-15T00:42:15.518Z,0.00
2023-02-15T00:43:15.692Z,0.00
2023-02-15T00:44:15.854Z,0.00
2023-02-15T00:45:17.360Z,0.00
2023-02-15T00:46:16.219Z,0.00
2023-02-15T00:47:16.356Z,0.00
2023-02-15T00:48:16.520Z,0.00
2023-02-15T00:49:16.694Z,0.00
2023-02-15T00:50:16.873Z,0.00
2023-02-15T00:51:17.042Z,0.00
2023-02-15T00:52:17.204Z,0.00
2023-02-15T00:53:17.363Z,0.00
2023-02-15T00:54:17.560Z,0.00
2023-02-15T00:55:17.715Z,0.00
2023-02-15T00:56:17.889Z,0.00
2023-02-15T00:57:18.056Z,0.00
2023-02-15T00:58:18.214Z,0.00
2023-02-15T00:59:18.417Z,0.00
2023-02-15T01:00:18.564Z,0.00
2023-02-15T01:01:18.778Z,0.00
2023-02-15T01:02:18.931Z,0.00
2023-02-15T01:03:19.084Z,0.00
2023-02-15T01:04:19.277Z,0.00
2023-02-15T01:05:19.441Z,0.00
2023-02-15T01:06:19.615Z,0.00
2023-02-15T01:07:19.788Z,0.00
2023-02-15T01:08:19.947Z,0.00
2023-02-15T01:09:20.161Z,0.00
2023-02-15T01:10:20.290Z,0.00
2023-02-15T01:11:20.457Z,0.00
2023-02-15T01:12:20.613Z,0.00
2023-02-15T01:13:20.834Z,0.00
2023-02-15T01:14:20.965Z,0.00
2023-02-15T01:15:21.128Z,0.00
2023-02-15T01:16:21.369Z,0.00
2023-02-15T01:17:21.489Z,0.00
2023-02-15T01:18:21.665Z,0.00
2023-02-15T01:19:21.825Z,0.00
2023-02-15T01:20:21.994Z,0.00
2023-02-15T01:21:22.162Z,0.00
2023-02-15T01:22:22.322Z,0.00
2023-02-15T01:23:22.527Z,0.00
2023-02-15T01:24:22.682Z,0.00
2023-02-15T01:25:22.854Z,0.00
2023-02-15T01:26:23.014Z,0.00
2023-02-15T01:27:23.174Z,0.00
2023-02-15T01:28:23.365Z,0.00
2023-02-15T01:29:23.544Z,0.00
2023-02-15T01:30:23.729Z,0.00
2023-02-15T01:31:23.975Z,0.00
2023-02-15T01:32:24.037Z,0.00
2023-02-15T01:33:24.217Z,0.00
2023-02-15T01:34:24.407Z,0.00
2023-02-15T01:35:24.584Z,0.00
2023-02-15T01:36:24.724Z,0.00
2023-02-15T01:37:24.897Z,0.00
2023-02-15T01:38:25.071Z,0.00
2023-02-15T01:39:25.237Z,0.00
2023-02-15T01:40:25.418Z,0.00
2023-02-15T01:41:25.631Z,0.00
2023-02-15T01:42:25.760Z,0.00
2023-02-15T01:43:25.968Z,0.00
2023-02-15T01:44:26.097Z,0.00
2023-02-15T01:45:26.298Z,0.00
2023-02-15T01:46:26.476Z,0.00
2023-02-15T01:48:26.816Z,0.00
2023-02-15T01:49:26.948Z,0.00
2023-02-15T01:50:27.125Z,0.00
2023-02-15T01:51:27.287Z,0.00
2023-02-15T01:52:27.450Z,0.00
2023-02-15T01:53:27.662Z,0.00
2023-02-15T01:54:27.812Z,0.00
2023-02-15T01:55:27.962Z,0.00
2023-02-15T01:56:28.147Z,0.00
2023-02-15T01:57:28.295Z,0.00
2023-02-15T01:58:28.481Z,0.00
2023-02-15T01:59:28.689Z,0.00
2023-02-15T02:00:28.814Z,0.00
2023-02-15T02:01:29.041Z,0.00
2023-02-15T02:02:29.206Z,0.00
2023-02-15T02:03:29.368Z,0.00
2023-02-15T02:04:29.489Z,0.00
2023-02-15T02:05:29.652Z,0.00
2023-02-15T02:06:29.804Z,0.00
2023-02-15T02:07:29.984Z,0.00
2023-02-15T02:08:30.171Z,0.00
2023-02-15T02:09:30.297Z,0.00
2023-02-15T02:10:30.477Z,0.00
2023-02-15T02:11:30.657Z,0.00
2023-02-15T02:12:30.846Z,0.00
2023-02-15T02:13:31.003Z,0.00
2023-02-15T02:14:31.184Z,0.00
2023-02-15T02:15:31.354Z,0.00
2023-02-15T02:16:31.513Z,0.00
2023-02-15T02:17:31.711Z,0.00
2023-02-15T02:18:31.901Z,0.00
2023-02-15T02:19:32.052Z,0.00
2023-02-15T02:20:32.219Z,0.00
2023-02-15T02:21:32.399Z,0.00
2023-02-15T02:22:32.559Z,0.00
2023-02-15T02:23:32.743Z,0.00
2023-02-15T02:24:32.908Z,0.00
2023-02-15T02:25:33.072Z,0.00
2023-02-15T02:26:33.236Z,0.00
2023-02-15T02:27:33.425Z,0.00
2023-02-15T02:28:33.580Z,0.00
2023-02-15T02:29:33.755Z,0.00
2023-02-15T02:30:33.996Z,0.00
2023-02-15T02:31:34.235Z,0.00
2023-02-15T02:32:34.305Z,0.00
2023-02-15T02:33:34.479Z,0.00
2023-02-15T02:34:34.644Z,0.00
2023-02-15T02:35:34.810Z,0.00
2023-02-15T02:36:34.994Z,0.00
2023-02-15T02:37:35.155Z,0.00
2023-02-15T02:38:35.316Z,0.00
2023-02-15T02:39:35.502Z,0.00
2023-02-15T02:40:35.658Z,0.00
2023-02-15T02:41:35.854Z,0.00
2023-02-15T02:42:36.023Z,0.00
2023-02-15T02:43:36.182Z,0.00
2023-02-15T02:44:36.341Z,0.00
2023-02-15T02:45:36.512Z,0.00
2023-02-15T02:46:36.727Z,0.00
2023-02-15T02:47:36.862Z,0.00
2023-02-15T02:48:37.033Z,0.00
2023-02-15T02:49:37.217Z,0.00
2023-02-15T02:50:37.349Z,0.00
2023-02-15T02:51:37.539Z,0.00
2023-02-15T02:52:37.693Z,0.00
2023-02-15T02:53:37.879Z,0.00
2023-02-15T02:54:38.029Z,0.00
2023-02-15T02:55:38.250Z,0.00
2023-02-15T02:56:38.372Z,0.00
2023-02-15T02:57:38.554Z,0.00
2023-02-15T02:58:38.715Z,0.00
2023-02-15T02:59:38.883Z,0.00
2023-02-15T03:00:39.066Z,0.00
2023-02-15T03:01:39.296Z,0.00
2023-02-15T03:02:39.495Z,0.00
2023-02-15T03:03:39.559Z,0.00
2023-02-15T03:04:39.719Z,0.00
2023-02-15T03:05:39.869Z,0.00
2023-02-15T03:06:40.034Z,0.00
2023-02-15T03:07:40.221Z,0.00
2023-02-15T03:08:40.389Z,0.00
2023-02-15T03:09:40.580Z,0.00
2023-02-15T03:10:40.704Z,0.00
2023-02-15T03:11:40.883Z,0.00
2023-02-15T03:12:41.050Z,0.00
2023-02-15T03:13:41.206Z,0.00
2023-02-15T03:14:41.363Z,0.00
2023-02-15T03:15:41.529Z,0.00
2023-02-15T03:16:41.713Z,0.00
2023-02-15T03:17:41.875Z,0.00
2023-02-15T03:18:42.044Z,0.00
2023-02-15T03:19:42.202Z,0.00
2023-02-15T03:20:42.358Z,0.00
2023-02-15T03:21:42.548Z,0.00
2023-02-15T03:22:42.703Z,0.00
2023-02-15T03:23:42.896Z,0.00
2023-02-15T03:24:43.048Z,0.00
2023-02-15T03:25:43.219Z,0.00
2023-02-15T03:26:43.375Z,0.00
2023-02-15T03:27:43.566Z,0.00
2023-02-15T03:28:43.732Z,0.00
2023-02-15T03:29:43.913Z,0.00
2023-02-15T03:30:44.067Z,0.00
2023-02-15T03:31:44.325Z,0.00
2023-02-15T03:32:44.426Z,0.00
2023-02-15T03:33:44.611Z,0.00
2023-02-15T03:34:44.756Z,0.00
2023-02-15T03:35:44.957Z,0.00
2023-02-15T03:36:45.088Z,0.00
2023-02-15T03:37:45.262Z,0.00
2023-02-15T03:38:45.440Z,0.00
2023-02-15T03:39:45.619Z,0.00
2023-02-15T03:40:45.797Z,0.00
2023-02-15T03:41:45.950Z,0.00
2023-02-15T03:42:46.124Z,0.00
2023-02-15T03:43:46.317Z,0.00
2023-02-15T03:44:46.442Z,0.00
2023-02-15T03:45:46.610Z,0.00
2023-02-15T03:46:46.819Z,0.00
2023-02-15T03:47:46.990Z,0.00
2023-02-15T03:48:47.157Z,0.00
2023-02-15T03:49:47.329Z,0.00
2023-02-15T03:50:47.500Z,0.00
2023-02-15T03:51:47.695Z,0.00
2023-02-15T03:52:47.840Z,0.00
2023-02-15T03:53:48.011Z,0.00
2023-02-15T03:54:48.173Z,0.00
2023-02-15T03:55:48.345Z,0.00
2023-02-15T03:56:48.538Z,0.00
2023-02-15T03:57:48.710Z,0.00
2023-02-15T03:58:48.860Z,0.00
2023-02-15T03:59:49.056Z,0.00
2023-02-15T04:00:49.221Z,0.00
2023-02-15T04:01:49.371Z,0.00
2023-02-15T04:02:49.548Z,0.00
2023-02-15T04:03:49.697Z,0.00
2023-02-15T04:04:49.884Z,0.00
2023-02-15T04:05:50.012Z,0.00
2023-02-15T04:06:50.204Z,0.00
2023-02-15T04:07:50.352Z,0.00
2023-02-15T04:08:50.521Z,0.00
2023-02-15T04:09:50.722Z,0.00
2023-02-15T04:10:50.837Z,0.00
2023-02-15T04:11:51.061Z,0.00
2023-02-15T04:12:51.165Z,0.00
2023-02-15T04:13:51.338Z,0.00
2023-02-15T04:14:51.504Z,0.00
2023-02-15T04:15:51.666Z,0.00
2023-02-15T04:16:51.981Z,0.00
2023-02-15T04:17:52.009Z,0.00
2023-02-15T04:18:52.192Z,0.00
2023-02-15T04:19:52.359Z,0.00
2023-02-15T04:20:52.543Z,0.00
2023-02-15T04:21:52.692Z,0.00
2023-02-15T04:22:52.861Z,0.00
2023-02-15T04:23:53.035Z,0.00
2023-02-15T04:24:53.210Z,0.00
2023-02-15T04:25:53.395Z,0.00
2023-02-15T04:26:53.558Z,0.00
2023-02-15T04:27:53.721Z,0.00
2023-02-15T04:28:53.890Z,0.00
2023-02-15T04:29:54.092Z,0.00
2023-02-15T04:30:54.366Z,0.00
2023-02-15T04:31:54.503Z,0.00
2023-02-15T04:32:54.621Z,0.00
2023-02-15T04:33:54.757Z,0.00
2023-02-15T04:34:54.921Z,0.00
2023-02-15T04:35:55.088Z,0.00
2023-02-15T04:36:55.241Z,0.00
2023-02-15T04:37:55.427Z,0.00
2023-02-15T04:38:55.595Z,0.00
2023-02-15T04:39:55.764Z,0.00
2023-02-15T04:40:55.930Z,0.00
2023-02-15T04:41:56.088Z,0.00
2023-02-15T04:42:56.268Z,0.00
2023-02-15T04:43:56.425Z,0.00
2023-02-15T04:44:56.589Z,0.00
2023-02-15T04:45:56.783Z,0.00
2023-02-15T04:46:56.951Z,0.00
2023-02-15T04:47:57.129Z,0.00
2023-02-15T04:48:57.310Z,0.00
2023-02-15T04:49:58.271Z,0.00
2023-02-15T04:50:57.631Z,0.00
2023-02-15T04:51:57.842Z,0.00
2023-02-15T04:52:57.951Z,0.00
2023-02-15T04:53:58.112Z,0.00
2023-02-15T04:54:58.272Z,0.00
2023-02-15T04:55:58.455Z,0.00
2023-02-15T04:56:58.622Z,0.00
2023-02-15T04:57:58.775Z,0.00
2023-02-15T04:58:58.977Z,0.00
2023-02-15T04:59:59.130Z,0.00
2023-02-15T05:00:59.368Z,0.00
2023-02-15T05:01:59.449Z,0.00
2023-02-15T05:02:59.631Z,0.00
2023-02-15T05:03:59.802Z,0.00
2023-02-15T05:04:59.945Z,0.00
2023-02-15T05:06:00.473Z,0.00
2023-02-15T05:07:00.307Z,0.00
2023-02-15T05:08:00.434Z,0.00
2023-02-15T05:09:00.606Z,0.00
2023-02-15T05:10:00.782Z,0.00
2023-02-15T05:11:00.954Z,0.00
2023-02-15T05:12:01.112Z,0.00
2023-02-15T05:13:01.287Z,0.00
2023-02-15T05:14:01.465Z,0.00
2023-02-15T05:15:01.656Z,0.00
2023-02-15T05:16:02.091Z,0.00
2023-02-15T05:17:01.970Z,0.00
2023-02-15T05:18:02.118Z,0.00
2023-02-15T05:19:02.291Z,0.00
2023-02-15T05:20:02.481Z,0.00
2023-02-15T05:21:02.636Z,0.00
2023-02-15T05:22:02.806Z,0.00
2023-02-15T05:23:02.978Z,0.00
2023-02-15T05:24:03.145Z,0.00
2023-02-15T05:25:03.334Z,0.00
2023-02-15T05:26:03.757Z,0.00
2023-02-15T05:27:03.684Z,0.00
2023-02-15T05:28:05.227Z,0.00
2023-02-15T05:29:04.032Z,0.00
2023-02-15T05:30:04.264Z,0.00
2023-02-15T05:31:04.763Z,0.00
2023-02-15T05:32:04.621Z,0.00
2023-02-15T05:33:04.738Z,0.00
2023-02-15T05:34:04.884Z,0.00
2023-02-15T05:35:05.058Z,0.00
2023-02-15T05:36:05.597Z,0.00
2023-02-15T05:37:05.407Z,0.00
2023-02-15T05:38:05.574Z,0.00
2023-02-15T05:39:05.776Z,0.00
2023-02-15T05:40:05.938Z,0.00
2023-02-15T05:41:06.098Z,0.00
2023-02-15T05:42:06.280Z,0.00
2023-02-15T05:43:06.430Z,0.00
2023-02-15T05:44:06.606Z,0.00
2023-02-15T05:45:06.764Z,0.00
2023-02-15T05:46:06.977Z,0.00
2023-02-15T05:47:07.109Z,0.00
2023-02-15T05:48:07.289Z,0.00
2023-02-15T05:49:07.440Z,0.00
2023-02-15T05:50:07.609Z,0.00
2023-02-15T05:51:07.788Z,0.00
2023-02-15T05:52:07.964Z,0.00
2023-02-15T05:53:08.110Z,0.00
2023-02-15T05:54:08.270Z,0.00
2023-02-15T05:55:08.441Z,0.00
2023-02-15T05:56:08.607Z,0.00
2023-02-15T05:57:08.785Z,0.00
2023-02-15T05:58:08.939Z,0.00
2023-02-15T05:59:09.112Z,0.00
2023-02-15T06:00:09.266Z,0.00
2023-02-15T06:01:09.442Z,0.00
2023-02-15T06:02:09.686Z,0.00
2023-02-15T06:03:09.813Z,0.00
2023-02-15T06:04:09.957Z,0.00
2023-02-15T06:05:10.130Z,4.00
2023-02-15T06:06:10.288Z,4.00
2023-02-15T06:07:10.472Z,0.00
2023-02-15T06:08:10.631Z,0.00
2023-02-15T06:09:10.804Z,0.00
2023-02-15T06:10:10.983Z,4.00
2023-02-15T06:11:11.133Z,4.00
2023-02-15T06:12:11.306Z,0.00
2023-02-15T06:13:11.468Z,4.00
2023-02-15T06:14:11.635Z,4.00
2023-02-15T06:15:11.794Z,8.00
2023-02-15T06:16:11.984Z,4.00
2023-02-15T06:17:12.163Z,8.00
2023-02-15T06:18:12.306Z,8.00
2023-02-15T06:19:12.472Z,8.00
2023-02-15T06:20:12.626Z,8.00
2023-02-15T06:21:12.805Z,12.00
2023-02-15T06:22:12.997Z,16.00
2023-02-15T06:23:13.144Z,20.00
2023-02-15T06:24:13.308Z,20.00
2023-02-15T06:25:13.485Z,20.00
2023-02-15T06:26:13.669Z,24.00
2023-02-15T06:27:13.880Z,28.00
2023-02-15T06:28:14.030Z,28.00
2023-02-15T06:29:14.228Z,32.00
2023-02-15T06:30:14.467Z,32.00
2023-02-15T06:31:14.699Z,32.00
2023-02-15T06:32:14.770Z,36.00
2023-02-15T06:33:14.920Z,40.00
2023-02-15T06:34:15.065Z,40.00
2023-02-15T06:35:15.302Z,44.00
2023-02-15T06:36:15.417Z,44.00
2023-02-15T06:37:15.644Z,48.00
2023-02-15T06:38:15.798Z,52.00
2023-02-15T06:39:15.986Z,56.00
2023-02-15T06:40:16.131Z,60.00
2023-02-15T06:41:16.317Z,60.00
2023-02-15T06:42:16.523Z,64.00
2023-02-15T06:43:16.669Z,64.00
2023-02-15T06:44:16.865Z,72.00
2023-02-15T06:45:17.046Z,72.00
2023-02-15T06:46:17.261Z,76.00
2023-02-15T06:47:17.426Z,80.00
2023-02-15T06:48:17.569Z,80.00
2023-02-15T06:49:17.761Z,88.00
2023-02-15T06:50:17.940Z,88.00
2023-02-15T06:51:18.133Z,92.00
2023-02-15T06:52:18.302Z,96.00
2023-02-15T06:53:18.481Z,96.00
2023-02-15T06:54:18.611Z,104.00
2023-02-15T06:55:18.802Z,108.00
2023-02-15T06:56:18.939Z,112.00
2023-02-15T06:57:19.131Z,112.00
2023-02-15T06:58:19.266Z,120.00
2023-02-15T06:59:19.443Z,120.00
2023-02-15T07:00:19.592Z,128.00
2023-02-15T07:01:19.815Z,132.00
2023-02-15T07:02:19.942Z,132.00
2023-02-15T07:03:20.092Z,136.00
2023-02-15T07:04:20.267Z,140.00
2023-02-15T07:05:20.425Z,148.00
2023-02-15T07:06:20.602Z,148.00
2023-02-15T07:07:20.809Z,152.00
2023-02-15T07:08:20.945Z,156.00
2023-02-15T07:09:21.110Z,160.00
2023-02-15T07:10:21.278Z,168.00
2023-02-15T07:11:21.451Z,172.00
2023-02-15T07:12:21.629Z,180.00
2023-02-15T07:13:21.782Z,184.00
2023-02-15T07:14:21.945Z,184.00
2023-02-15T07:15:22.108Z,188.00
2023-02-15T07:16:22.408Z,188.00
2023-02-15T07:17:37.476Z,192.00
2023-02-15T07:18:23.619Z,200.00
2023-02-15T07:19:22.795Z,204.00
2023-02-15T07:20:22.944Z,208.00
2023-02-15T07:21:23.129Z,196.00
2023-02-15T07:22:23.367Z,200.00
2023-02-15T07:23:23.458Z,204.00
2023-02-15T07:24:23.639Z,212.00
2023-02-15T07:25:23.826Z,208.00
2023-02-15T07:26:24.010Z,212.00
2023-02-15T07:27:24.155Z,216.00
2023-02-15T07:28:24.299Z,224.00
2023-02-15T07:29:24.501Z,240.00
2023-02-15T07:30:24.695Z,244.00
2023-02-15T07:31:24.864Z,536.00
2023-02-15T07:32:25.043Z,568.00
2023-02-15T07:33:25.215Z,612.00
2023-02-15T07:34:25.365Z,624.00
2023-02-15T07:35:25.546Z,652.00
2023-02-15T07:36:25.715Z,620.00
2023-02-15T07:37:25.863Z,648.00
2023-02-15T07:38:26.033Z,664.00
2023-02-15T07:39:26.184Z,660.00
2023-02-15T07:40:26.338Z,692.00
2023-02-15T07:41:26.571Z,716.00
2023-02-15T07:42:26.726Z,744.00
2023-02-15T07:43:26.862Z,760.00
2023-02-15T07:44:27.027Z,780.00
2023-02-15T07:45:27.194Z,796.00
2023-02-15T07:46:27.388Z,816.00
2023-02-15T07:47:27.519Z,848.00
2023-02-15T07:48:27.717Z,876.00
2023-02-15T07:49:27.889Z,892.00
2023-02-15T07:50:28.041Z,904.00
2023-02-15T07:51:28.222Z,916.00
2023-02-15T07:52:28.365Z,916.00
2023-02-15T07:53:28.525Z,956.00
2023-02-15T07:54:28.685Z,948.00
2023-02-15T07:55:28.873Z,960.00
2023-02-15T07:56:29.032Z,996.00
2023-02-15T07:57:29.188Z,980.00
2023-02-15T07:58:29.346Z,1020.00
2023-02-15T07:59:29.545Z,1088.00
2023-02-15T08:00:29.695Z,1140.00
2023-02-15T08:01:29.859Z,1120.00
2023-02-15T08:02:30.099Z,1056.00
2023-02-15T08:03:30.384Z,1132.00
2023-02-15T08:04:30.372Z,1080.00
2023-02-15T08:05:30.548Z,1080.00
2023-02-15T08:06:30.709Z,988.00
2023-02-15T08:07:30.904Z,1044.00
2023-02-15T08:08:31.202Z,1052.00
2023-02-15T08:09:31.250Z,1112.00
2023-02-15T08:10:31.422Z,1160.00
2023-02-15T08:11:31.597Z,1124.00
2023-02-15T08:12:31.741Z,1124.00
2023-02-15T08:13:31.911Z,1148.00
2023-02-15T08:14:32.088Z,1132.00
2023-02-15T08:15:32.280Z,1152.00
2023-02-15T08:16:32.484Z,1192.00
2023-02-15T08:17:32.664Z,1324.00
2023-02-15T08:18:32.792Z,1324.00
2023-02-15T08:19:32.966Z,1400.00
2023-02-15T08:20:33.165Z,1388.00
2023-02-15T08:21:33.302Z,1420.00
2023-02-15T08:22:33.453Z,1324.00
2023-02-15T08:23:33.628Z,1252.00
2023-02-15T08:24:33.838Z,1308.00
2023-02-15T08:25:35.347Z,1548.00
2023-02-15T08:26:34.146Z,1480.00
2023-02-15T08:27:34.380Z,1492.00
2023-02-15T08:28:34.501Z,1468.00
2023-02-15T08:29:34.682Z,1636.00
2023-02-15T08:30:36.371Z,1596.00
2023-02-15T08:31:35.161Z,1632.00
2023-02-15T08:32:35.159Z,1968.00
2023-02-15T08:33:35.385Z,2152.00
2023-02-15T08:34:35.530Z,2148.00
2023-02-15T08:35:35.676Z,2044.00
2023-02-15T08:36:35.827Z,1776.00
2023-02-15T08:37:36.022Z,1704.00
2023-02-15T08:38:36.162Z,2048.00
2023-02-15T08:39:36.366Z,1840.00
2023-02-15T08:40:36.544Z,2208.00
2023-02-15T08:41:36.727Z,2260.00
2023-02-15T08:42:36.863Z,2536.00
2023-02-15T08:43:37.059Z,2400.00
2023-02-15T08:44:37.224Z,2048.00
2023-02-15T08:45:37.434Z,2240.00
2023-02-15T08:46:37.573Z,2364.00
2023-02-15T08:47:37.752Z,2024.00
2023-02-15T08:48:37.935Z,2488.00
2023-02-15T08:49:38.155Z,2588.00
2023-02-15T08:50:38.294Z,3256.00
2023-02-15T08:51:38.504Z,3336.00
2023-02-15T08:52:38.858Z,3264.00
2023-02-15T08:53:38.833Z,3192.00
2023-02-15T08:54:39.034Z,2232.00
2023-02-15T08:55:39.193Z,2496.00
2023-02-15T08:56:39.394Z,2956.00
2023-02-15T08:57:39.624Z,2652.00
2023-02-15T08:58:39.743Z,2924.00
2023-02-15T08:59:39.947Z,2964.00
2023-02-15T09:00:40.094Z,2884.00
2023-02-15T09:01:40.346Z,2732.00
2023-02-15T09:02:40.536Z,2704.00
2023-02-15T09:03:40.653Z,3068.00
2023-02-15T09:04:40.813Z,3304.00
2023-02-15T09:05:40.988Z,4020.00
2023-02-15T09:06:41.172Z,3792.00
2023-02-15T09:07:41.342Z,3484.00
2023-02-15T09:08:41.495Z,3536.00
2023-02-15T09:09:41.690Z,4248.00
2023-02-15T09:10:41.836Z,4128.00
2023-02-15T09:11:42.017Z,3576.00
2023-02-15T09:12:42.225Z,3364.00
2023-02-15T09:13:42.376Z,2908.00
2023-02-15T09:14:42.567Z,3896.00
2023-02-15T09:15:42.721Z,4748.00
2023-02-15T09:16:42.974Z,4508.00
2023-02-15T09:17:43.096Z,4120.00
2023-02-15T09:18:43.254Z,3716.00
2023-02-15T09:19:43.438Z,4008.00
2023-02-15T09:20:43.592Z,4040.00
2023-02-15T09:21:43.775Z,4744.00
2023-02-15T09:22:43.977Z,4916.00
2023-02-15T09:23:44.151Z,4028.00
2023-02-15T09:24:44.301Z,4128.00
2023-02-15T09:25:44.446Z,4832.00
2023-02-15T09:26:44.639Z,4700.00
2023-02-15T09:27:44.856Z,4452.00
2023-02-15T09:28:45.019Z,5108.00
2023-02-15T09:29:45.274Z,7948.00
2023-02-15T09:30:45.420Z,4364.00
2023-02-15T09:31:45.871Z,4676.00
2023-02-15T09:32:45.707Z,4716.00
2023-02-15T09:33:45.880Z,4036.00
2023-02-15T09:34:46.029Z,4008.00
2023-02-15T09:35:46.236Z,4368.00
2023-02-15T09:36:46.406Z,6004.00
2023-02-15T09:37:46.586Z,6340.00
2023-02-15T09:38:46.775Z,5416.00
2023-02-15T09:39:48.860Z,3820.00
2023-02-15T09:40:47.101Z,3036.00
2023-02-15T09:41:47.250Z,3124.00
2023-02-15T09:42:47.463Z,2912.00
2023-02-15T09:43:47.606Z,2576.00
2023-02-15T09:44:47.790Z,2864.00
2023-02-15T09:45:48.052Z,2768.00
2023-02-15T09:46:48.153Z,2564.00
2023-02-15T09:47:48.350Z,2640.00
2023-02-15T09:48:48.502Z,2412.00
2023-02-15T09:49:48.686Z,2820.00
2023-02-15T09:50:48.885Z,3108.00
2023-02-15T09:51:49.031Z,3392.00
2023-02-15T09:52:49.241Z,2948.00
2023-02-15T09:53:49.381Z,3796.00
2023-02-15T09:54:49.593Z,4084.00
2023-02-15T09:55:49.752Z,3752.00
2023-02-15T09:56:49.949Z,4128.00
2023-02-15T09:57:50.103Z,3304.00
2023-02-15T09:58:50.283Z,4032.00
2023-02-15T09:59:50.426Z,3236.00
2023-02-15T10:00:50.629Z,4228.00
2023-02-15T10:01:50.830Z,4868.00
2023-02-15T10:02:50.981Z,4844.00
2023-02-15T10:03:51.148Z,4144.00
2023-02-15T10:04:51.343Z,4484.00
2023-02-15T10:05:51.447Z,4212.00
2023-02-15T10:06:51.646Z,4120.00
2023-02-15T10:07:51.829Z,4400.00
2023-02-15T10:08:52.054Z,4548.00
2023-02-15T10:09:52.189Z,3964.00
2023-02-15T10:10:52.383Z,4340.00
2023-02-15T10:11:52.872Z,4740.00
2023-02-15T10:12:52.713Z,4868.00
2023-02-15T10:13:52.924Z,6368.00
2023-02-15T10:14:53.071Z,7288.00
2023-02-15T10:15:53.294Z,8048.00
2023-02-15T10:16:53.463Z,10152.00
2023-02-15T10:17:53.564Z,9764.00
2023-02-15T10:18:53.732Z,6360.00
2023-02-15T10:19:53.922Z,5376.00
2023-02-15T10:20:54.100Z,6852.00
2023-02-15T10:21:54.254Z,7464.00
2023-02-15T10:22:54.433Z,7520.00
2023-02-15T10:23:54.629Z,5436.00
2023-02-15T10:24:54.823Z,4520.00
2023-02-15T10:25:54.977Z,4312.00
2023-02-15T10:26:55.164Z,5220.00
2023-02-15T10:27:55.360Z,5268.00
2023-02-15T10:28:55.577Z,5928.00
2023-02-15T10:29:55.789Z,6052.00
2023-02-15T10:30:56.158Z,5516.00
2023-02-15T10:31:56.176Z,6560.00
2023-02-15T10:32:56.274Z,6600.00
2023-02-15T10:33:56.454Z,7100.00
2023-02-15T10:34:56.607Z,8164.00
2023-02-15T10:35:56.763Z,8868.00
2023-02-15T10:36:56.964Z,8604.00
2023-02-15T10:37:57.135Z,11912.00
2023-02-15T10:38:57.435Z,9004.00
2023-02-15T10:39:57.465Z,10324.00
2023-02-15T10:40:57.635Z,10336.00
2023-02-15T10:41:57.795Z,10284.00
2023-02-15T10:42:57.973Z,10428.00
2023-02-15T10:43:58.162Z,9000.00
2023-02-15T10:44:58.322Z,9152.00
2023-02-15T10:45:58.499Z,11552.00
2023-02-15T10:46:58.665Z,10416.00
2023-02-15T10:47:58.855Z,12972.00
2023-02-15T10:48:59.027Z,12004.00
2023-02-15T10:49:59.214Z,11468.00
2023-02-15T10:50:59.399Z,10376.00
2023-02-15T10:51:59.558Z,12188.00
2023-02-15T10:52:59.732Z,12216.00
2023-02-15T10:53:59.908Z,14696.00
2023-02-15T10:55:00.131Z,14316.00
2023-02-15T10:56:00.243Z,15096.00
2023-02-15T10:57:00.418Z,14120.00
2023-02-15T10:58:01.430Z,11800.00
2023-02-15T10:59:00.780Z,11068.00
2023-02-15T11:00:00.972Z,11204.00
2023-02-15T11:01:01.691Z,14156.00
2023-02-15T11:02:01.324Z,12592.00
2023-02-15T11:03:01.521Z,12744.00
2023-02-15T11:04:01.660Z,13116.00
2023-02-15T11:05:01.870Z,13612.00
2023-02-15T11:06:01.995Z,13828.00
2023-02-15T11:07:02.172Z,13984.00
2023-02-15T11:08:02.342Z,13268.00
2023-02-15T11:09:02.513Z,12992.00
2023-02-15T11:10:02.706Z,12460.00
2023-02-15T11:11:04.221Z,11956.00
2023-02-15T11:12:03.081Z,11972.00
2023-02-15T11:13:03.245Z,12100.00
2023-02-15T11:14:03.435Z,12196.00
2023-02-15T11:15:03.613Z,11236.00
2023-02-15T11:16:03.819Z,12000.00
2023-02-15T11:17:03.942Z,11820.00
2023-02-15T11:18:04.117Z,11300.00
2023-02-15T11:19:04.303Z,11140.00
2023-02-15T11:20:04.488Z,11204.00
2023-02-15T11:21:04.826Z,11224.00
2023-02-15T11:22:04.788Z,11088.00
2023-02-15T11:23:04.967Z,10944.00
2023-02-15T11:24:05.156Z,10816.00
2023-02-15T11:25:05.351Z,10372.00
2023-02-15T11:26:05.542Z,9548.00
2023-02-15T11:27:05.844Z,5420.00
2023-02-15T11:28:05.864Z,5548.00
2023-02-15T11:29:06.050Z,5512.00
2023-02-15T11:30:06.232Z,5468.00
2023-02-15T11:31:06.881Z,5412.00
2023-02-15T11:32:06.633Z,5384.00
2023-02-15T11:33:07.232Z,5488.00
2023-02-15T11:34:06.941Z,5472.00
2023-02-15T11:35:07.130Z,5444.00
2023-02-15T11:36:07.313Z,5460.00
2023-02-15T11:37:07.503Z,5436.00
2023-02-15T11:38:07.623Z,5424.00
2023-02-15T11:39:07.802Z,5384.00
2023-02-15T11:40:07.991Z,5364.00
2023-02-15T11:41:08.143Z,5340.00
2023-02-15T11:42:08.318Z,5336.00
2023-02-15T11:43:08.504Z,5332.00
2023-02-15T11:44:08.829Z,5312.00
2023-02-15T11:45:08.863Z,4680.00
2023-02-15T11:46:10.748Z,5292.00
2023-02-15T11:47:09.185Z,5280.00
2023-02-15T11:48:09.372Z,5268.00
2023-02-15T11:49:09.544Z,5252.00
2023-02-15T11:50:09.714Z,5232.00
2023-02-15T11:51:09.905Z,5244.00
2023-02-15T11:52:10.073Z,5256.00
2023-02-15T11:53:10.278Z,5264.00
2023-02-15T11:54:10.416Z,5252.00
2023-02-15T11:55:10.589Z,5284.00
2023-02-15T11:56:10.817Z,5264.00
2023-02-15T11:57:10.963Z,5268.00
2023-02-15T11:58:11.142Z,5276.00
2023-02-15T11:59:11.353Z,5236.00
2023-02-15T12:00:11.508Z,10700.00
2023-02-15T12:01:11.683Z,15892.00
2023-02-15T12:02:11.882Z,5336.00
2023-02-15T12:03:12.023Z,5352.00
2023-02-15T12:04:12.239Z,5384.00
2023-02-15T12:05:12.389Z,5376.00
2023-02-15T12:06:12.609Z,5376.00
2023-02-15T12:07:12.822Z,5400.00
2023-02-15T12:08:12.911Z,5408.00
2023-02-15T12:09:13.090Z,5192.00
2023-02-15T12:10:13.332Z,5144.00
2023-02-15T12:11:20.506Z,5316.00
2023-02-15T12:12:13.662Z,5540.00
2023-02-15T12:13:13.808Z,5600.00
2023-02-15T12:14:14.009Z,5648.00
2023-02-15T12:15:14.165Z,5684.00
2023-02-15T12:16:14.442Z,5752.00
2023-02-15T12:17:14.744Z,5856.00
2023-02-15T12:18:14.704Z,5916.00
2023-02-15T12:19:14.853Z,6008.00
2023-02-15T12:20:15.021Z,5988.00
2023-02-15T12:21:15.452Z,6000.00
2023-02-15T12:22:15.403Z,6068.00
2023-02-15T12:23:15.533Z,6204.00
2023-02-15T12:24:15.748Z,6144.00
2023-02-15T12:25:15.901Z,6420.00
2023-02-15T12:26:16.518Z,6568.00
2023-02-15T12:27:16.242Z,6752.00
2023-02-15T12:28:16.532Z,7544.00
2023-02-15T12:29:16.555Z,9144.00
2023-02-15T12:30:16.881Z,12520.00
2023-02-15T12:31:17.040Z,17824.00
2023-02-15T12:32:17.171Z,22944.00
2023-02-15T12:33:17.228Z,27360.00
2023-02-15T12:34:17.399Z,27744.00
2023-02-15T12:35:17.590Z,26880.00
2023-02-15T12:36:17.754Z,28000.00
2023-02-15T12:37:17.955Z,27808.00
2023-02-15T12:38:18.125Z,29440.00
2023-02-15T12:39:18.299Z,29728.00
2023-02-15T12:40:18.473Z,25952.00
2023-02-15T12:41:18.648Z,20352.00
2023-02-15T12:42:18.852Z,15808.00
2023-02-15T12:43:19.004Z,14040.00
2023-02-15T12:44:19.186Z,13348.00
2023-02-15T12:45:19.504Z,12752.00